Time;durP1;ratioP1;P1;durP2;ratioP2;P2;SDS_P1;SDS_P2;PMS_P1;PMS_P2;Temp;Humidity;BMP_temperature;BMP_pressure;BME280_temperature;BME280_humidity;BME280_pressure;Samples;Min_cycle;Max_cycle;Signal;HPM_P1;HPM_P2
2021/12/17 00:03:06;;;;;;;44.03;24.35;;;4.20;99.10;;;;;;5072366;28;20029;-64
2021/12/17 00:05:05;;;;;;;47.65;25.15;;;4.20;99.20;;;;;;5071949;28;20476;-63
2021/12/17 00:07:35;;;;;;;45.58;24.30;;;4.30;99.10;;;;;;5072230;28;20029;-64
2021/12/17 00:10:15;;;;;;;56.60;27.60;;;4.30;99.10;;;;;;5071962;28;20016;-63
2021/12/17 00:12:41;;;;;;;53.53;26.25;;;4.20;99.10;;;;;;5071566;28;20048;-63
2021/12/17 00:15:08;;;;;;;50.63;25.92;;;4.30;99.20;;;;;;5071821;28;20024;-64
2021/12/17 00:17:38;;;;;;;57.80;27.63;;;4.30;99.20;;;;;;5071818;28;20029;-64
2021/12/17 00:50:23;;;;;;;64.47;31.27;;;4.40;99.30;;;;;;5071618;28;20031;-64
2021/12/17 00:52:49;;;;;;;60.53;28.67;;;4.40;99.20;;;;;;5071221;28;20069;-63
2021/12/17 00:55:15;;;;;;;63.58;30.52;;;4.40;99.30;;;;;;5071474;28;20029;-64
2021/12/17 00:57:43;;;;;;;65.53;28.58;;;4.40;99.40;;;;;;5071358;28;20056;-63
2021/12/17 01:00:17;;;;;;;66.43;29.65;;;4.40;99.40;;;;;;5069910;28;20433;-65
2021/12/17 01:02:43;;;;;;;63.65;29.10;;;4.40;99.40;;;;;;5070990;28;20115;-62
2021/12/17 01:05:19;;;;;;;59.67;29.67;;;4.40;99.20;;;;;;5071564;28;20070;-64
2021/12/17 01:07:47;;;;;;;56.33;27.02;;;4.50;99.10;;;;;;5071186;28;20023;-63
2021/12/17 01:10:31;;;;;;;49.95;25.35;;;4.50;98.80;;;;;;5069835;28;20472;-64
2021/12/17 01:12:58;;;;;;;48.20;24.77;;;4.40;98.40;;;;;;5070889;28;20395;-64
2021/12/17 01:15:25;;;;;;;53.13;26.13;;;4.40;98.10;;;;;;5069854;28;20415;-64
2021/12/17 01:17:55;;;;;;;51.03;26.17;;;4.30;98.50;;;;;;5071053;28;20039;-63
2021/12/17 01:36:31;;;;;;;49.50;26.05;;;4.40;99.00;;;;;;5050968;28;20039;-63
2021/12/17 01:44:13;;;;;;;56.35;29.15;;;4.40;99.00;;;;;;5050995;28;20036;-63
2021/12/17 01:46:40;;;;;;;48.30;26.73;;;4.50;98.90;;;;;;5050845;28;20025;-63
2021/12/17 02:00:05;;;;;;;52.33;29.00;;;4.40;99.00;;;;;;5051041;28;20087;-63
2021/12/17 02:02:42;;;;;;;51.30;27.97;;;4.40;98.90;;;;;;5049600;28;20025;-62
2021/12/17 02:05:09;;;;;;;49.47;26.75;;;4.50;98.80;;;;;;5050979;28;20491;-63
2021/12/17 02:07:36;;;;;;;51.00;29.27;;;4.40;98.80;;;;;;5049668;28;20431;-63
2021/12/17 02:29:00;;;;;;;38.50;23.40;;;4.40;98.40;;;;;;5054195;28;20075;-64
2021/12/17 02:31:31;;;;;;;39.80;23.67;;;4.40;98.50;;;;;;5053904;28;20502;-64
2021/12/17 02:34:14;;;;;;;43.67;24.17;;;4.40;98.60;;;;;;5065769;28;20028;-63
2021/12/17 02:36:42;;;;;;;;;;;4.40;98.40;;;;;;5074206;28;20029;-63
2021/12/17 02:47:18;;;;;;;40.80;24.55;;;4.40;98.50;;;;;;5073919;28;20020;-63
2021/12/17 02:49:46;;;;;;;41.83;24.90;;;4.40;98.50;;;;;;5072421;28;20470;-63
2021/12/17 02:52:12;;;;;;;42.85;26.13;;;4.40;98.50;;;;;;5073460;28;20344;-64
2021/12/17 02:54:39;;;;;;;45.13;26.60;;;4.40;98.40;;;;;;5073388;28;20016;-62
2021/12/17 02:57:06;;;;;;;42.70;25.63;;;4.40;98.40;;;;;;5073391;28;20028;-64
2021/12/17 02:59:33;;;;;;;45.28;26.20;;;4.40;98.50;;;;;;5073733;28;20033;-64
2021/12/17 03:02:01;;;;;;;45.05;25.27;;;4.40;98.40;;;;;;5073397;28;20031;-62
2021/12/17 03:04:28;;;;;;;45.10;25.65;;;4.30;98.40;;;;;;5071960;28;20016;-63
2021/12/17 03:06:55;;;;;;;41.75;25.05;;;4.40;98.40;;;;;;5073214;28;20044;-63
2021/12/17 03:09:31;;;;;;;45.17;25.70;;;4.40;98.40;;;;;;5072087;28;20103;-63
2021/12/17 03:11:57;;;;;;;42.53;24.20;;;4.40;98.40;;;;;;5073117;28;20024;-63
2021/12/17 03:14:22;;;;;;;43.20;24.88;;;4.40;98.20;;;;;;5072926;28;20066;-63
2021/12/17 03:17:00;;;;;;;40.72;23.17;;;4.40;98.10;;;;;;5072989;28;20482;-63
2021/12/17 03:25:05;;;;;;;39.10;23.10;;;4.40;98.30;;;;;;5073236;28;20105;-64
2021/12/17 03:27:31;;;;;;;40.42;23.20;;;4.40;98.40;;;;;;5072888;28;20074;-64
2021/12/17 03:29:57;;;;;;;41.03;23.95;;;4.40;98.40;;;;;;5073307;28;20071;-63
2021/12/17 03:32:22;;;;;;;41.30;24.35;;;4.40;98.40;;;;;;5071871;28;20028;-63
2021/12/17 03:34:50;;;;;;;45.10;24.83;;;4.40;98.30;;;;;;5053515;28;20032;-64
2021/12/17 03:37:16;;;;;;;46.05;26.45;;;4.40;98.40;;;;;;5052798;28;20067;-64
2021/12/17 03:39:41;;;;;;;43.65;25.60;;;4.40;98.30;;;;;;5052584;28;20072;-62
2021/12/17 03:42:09;;;;;;;44.95;25.80;;;4.40;98.20;;;;;;5052381;28;20491;-63
2021/12/17 03:44:34;;;;;;;39.92;24.55;;;4.40;98.30;;;;;;5052517;28;20044;-63
2021/12/17 03:47:01;;;;;;;39.15;23.60;;;4.30;98.20;;;;;;5052487;28;20425;-63
2021/12/17 03:49:27;;;;;;;38.63;23.33;;;4.40;98.20;;;;;;5052674;28;20078;-62
2021/12/17 03:52:04;;;;;;;39.03;23.70;;;4.40;98.10;;;;;;5052628;28;20524;-63
2021/12/17 03:54:34;;;;;;;35.38;21.20;;;4.40;98.10;;;;;;5052197;28;20029;-63
2021/12/17 03:57:01;;;;;;;38.50;22.45;;;4.40;98.20;;;;;;5052325;28;20086;-63
2021/12/17 03:59:27;;;;;;;38.30;23.20;;;4.40;98.20;;;;;;5052424;28;20468;-63
2021/12/17 04:01:52;;;;;;;36.03;21.67;;;4.40;98.10;;;;;;5052162;28;20036;-63
2021/12/17 04:04:18;;;;;;;36.38;21.63;;;4.40;98.00;;;;;;5052110;28;20575;-64
2021/12/17 04:06:44;;;;;;;37.00;22.58;;;4.40;98.00;;;;;;5052155;28;20036;-64
2021/12/17 04:09:10;;;;;;;35.40;20.73;;;4.40;97.90;;;;;;5050733;28;20021;-63
2021/12/17 04:11:36;;;;;;;34.88;20.60;;;4.40;97.90;;;;;;5052293;28;20480;-63
2021/12/17 04:14:02;;;;;;;34.00;21.25;;;4.40;98.00;;;;;;5052118;28;20131;-63
2021/12/17 04:16:31;;;;;;;32.13;20.10;;;4.40;97.80;;;;;;5052402;28;20017;-63
2021/12/17 04:18:58;;;;;;;33.33;21.70;;;4.40;97.90;;;;;;5052064;28;20028;-64
2021/12/17 04:21:25;;;;;;;33.00;20.52;;;4.40;97.70;;;;;;5051844;28;20124;-64
2021/12/17 04:23:53;;;;;;;33.00;20.08;;;4.40;97.50;;;;;;5052080;28;20029;-63
2021/12/17 04:26:20;;;;;;;33.90;20.27;;;4.40;97.60;;;;;;5051886;28;20355;-62
2021/12/17 04:28:49;;;;;;;32.17;19.35;;;4.40;97.60;;;;;;5051577;28;20075;-63
2021/12/17 04:31:16;;;;;;;30.83;20.30;;;4.30;97.70;;;;;;5051835;28;20029;-64
2021/12/17 04:33:43;;;;;;;29.85;18.88;;;4.40;97.70;;;;;;5061328;28;20024;-62
2021/12/17 04:36:12;;;;;;;31.75;19.65;;;4.40;97.80;;;;;;5071535;28;20020;-62
2021/12/17 04:38:38;;;;;;;31.30;18.88;;;4.40;97.70;;;;;;5071537;28;20027;-64
2021/12/17 04:44:03;;;;;;;31.83;19.48;;;4.40;97.70;;;;;;5071702;28;20581;-63
2021/12/17 04:57:33;;;;;;;51.88;27.70;;;4.40;97.50;;;;;;4990044;28;20585;-64
2021/12/17 05:00:12;;;;;;;46.08;24.73;;;4.40;97.40;;;;;;5041336;28;20050;-65
2021/12/17 05:02:46;;;;;;;39.58;22.08;;;4.40;97.50;;;;;;5071145;28;20051;-63
2021/12/17 05:05:12;;;;;;;54.75;27.15;;;4.40;97.50;;;;;;5069932;28;20419;-62
2021/12/17 05:07:45;;;;;;;47.30;25.77;;;4.40;97.40;;;;;;5071264;28;20028;-64
2021/12/17 05:18:26;;;;;;;48.75;27.98;;;4.40;97.40;;;;;;5070674;28;20035;-64
2021/12/17 05:21:03;;;;;;;36.38;21.80;;;4.40;97.30;;;;;;5070830;28;20040;-64
2021/12/17 05:23:34;;;;;;;43.25;25.30;;;4.40;97.20;;;;;;5071001;28;20383;-64
2021/12/17 05:26:03;;;;;;;40.40;24.77;;;4.40;97.10;;;;;;5070604;28;20024;-65
2021/12/17 05:28:29;;;;;;;43.95;25.25;;;4.40;97.10;;;;;;5070999;28;20074;-63
2021/12/17 05:30:56;;;;;;;34.03;21.17;;;4.40;97.00;;;;;;5070608;28;20033;-64
2021/12/17 05:33:22;;;;;;;32.80;19.67;;;4.40;97.00;;;;;;5063841;28;20028;-64
2021/12/17 05:35:49;;;;;;;38.47;24.42;;;4.40;97.20;;;;;;5051000;28;20033;-64
2021/12/17 05:38:16;;;;;;;40.67;25.90;;;4.40;97.10;;;;;;5050626;28;20059;-66
2021/12/17 05:40:43;;;;;;;34.67;22.42;;;4.40;97.10;;;;;;5050647;28;20021;-63
2021/12/17 05:43:09;;;;;;;39.08;24.77;;;4.40;97.20;;;;;;5050399;28;20408;-64
2021/12/17 05:45:48;;;;;;;56.90;36.17;;;4.50;97.00;;;;;;5053469;28;20032;-64
2021/12/17 05:48:15;;;;;;;38.67;25.08;;;4.50;96.80;;;;;;5054594;28;20055;-64
2021/12/17 05:50:45;;;;;;;40.75;26.90;;;4.40;96.80;;;;;;5054639;28;20029;-64
2021/12/17 05:53:11;;;;;;;32.97;22.65;;;4.50;96.70;;;;;;5054307;28;20075;-64
2021/12/17 05:55:37;;;;;;;25.42;17.98;;;4.40;96.90;;;;;;5054415;28;20043;-63
2021/12/17 05:58:04;;;;;;;26.02;18.50;;;4.40;96.70;;;;;;5054446;28;20028;-63
2021/12/17 06:00:31;;;;;;;29.98;21.85;;;4.40;96.80;;;;;;5054354;28;20468;-65
2021/12/17 06:03:01;;;;;;;25.45;17.98;;;4.40;96.70;;;;;;5054308;28;20074;-64
2021/12/17 06:05:28;;;;;;;23.60;16.95;;;4.40;96.50;;;;;;5054574;28;20071;-64
2021/12/17 06:07:54;;;;;;;24.83;16.98;;;4.40;96.60;;;;;;5054760;28;20108;-64
2021/12/17 06:10:20;;;;;;;20.90;14.15;;;4.40;96.50;;;;;;5054315;28;20082;-64
2021/12/17 06:12:46;;;;;;;20.77;14.40;;;4.40;96.60;;;;;;5052847;28;20041;-64
2021/12/17 06:15:14;;;;;;;23.63;16.42;;;4.40;96.60;;;;;;5054521;28;20357;-64
2021/12/17 06:17:41;;;;;;;24.98;16.45;;;4.40;96.50;;;;;;5054082;28;20033;-64
2021/12/17 06:20:08;;;;;;;22.95;15.75;;;4.50;96.50;;;;;;5053928;28;20021;-65
2021/12/17 06:22:34;;;;;;;22.05;14.35;;;4.50;96.70;;;;;;5053895;28;20037;-63
2021/12/17 06:25:00;;;;;;;21.10;14.23;;;4.50;96.40;;;;;;5053664;28;20048;-64
2021/12/17 06:27:26;;;;;;;19.58;13.40;;;4.40;96.50;;;;;;5053974;28;20017;-65
2021/12/17 06:29:53;;;;;;;19.10;13.05;;;4.40;96.50;;;;;;5053730;28;20028;-64
2021/12/17 06:32:20;;;;;;;19.83;13.52;;;4.40;96.30;;;;;;5053930;28;20041;-64
2021/12/17 06:34:46;;;;;;;18.95;12.98;;;4.50;96.50;;;;;;5072176;28;20029;-65
2021/12/17 06:37:12;;;;;;;20.40;13.25;;;4.50;96.30;;;;;;5072680;28;20081;-64
2021/12/17 06:39:38;;;;;;;20.55;13.63;;;4.50;96.40;;;;;;5074101;28;20774;-64
2021/12/17 06:42:07;;;;;;;19.80;13.10;;;4.50;96.50;;;;;;5073432;28;20109;-64
2021/12/17 06:44:33;;;;;;;19.58;13.18;;;4.50;96.30;;;;;;5074227;28;20032;-65
2021/12/17 06:47:08;;;;;;;18.80;12.70;;;4.50;96.40;;;;;;5073424;28;20027;-65
2021/12/17 07:10:50;;;;;;;15.43;10.82;;;4.60;95.30;;;;;;5058865;28;20031;-65
2021/12/17 07:34:16;;;;;;;15.75;9.40;;;4.60;94.80;;;;;;5072882;28;20108;-64
2021/12/17 07:39:08;;;;;;;13.32;9.15;;;4.60;95.10;;;;;;5073051;28;20032;-64
2021/12/17 07:41:35;;;;;;;14.13;9.70;;;4.60;95.00;;;;;;5072834;28;20032;-66
2021/12/17 07:44:02;;;;;;;14.40;10.18;;;4.60;95.00;;;;;;5073009;28;20028;-65
2021/12/17 07:46:28;;;;;;;14.90;9.85;;;4.70;94.80;;;;;;5072875;28;20012;-65
2021/12/17 07:48:54;;;;;;;13.95;10.02;;;4.70;94.80;;;;;;5072670;28;20025;-65
2021/12/17 07:51:25;;;;;;;15.25;10.27;;;4.70;94.90;;;;;;5072486;28;20067;-66
2021/12/17 07:53:51;;;;;;;12.20;8.60;;;4.70;95.00;;;;;;5071040;28;20524;-66
2021/12/17 07:56:20;;;;;;;10.93;7.65;;;4.80;94.50;;;;;;5072978;28;20028;-64
2021/12/17 07:58:45;;;;;;;11.77;8.68;;;4.80;94.70;;;;;;5072313;28;20021;-63
2021/12/17 08:01:12;;;;;;;12.77;8.40;;;4.90;94.50;;;;;;5072525;28;20116;-66
2021/12/17 08:03:39;;;;;;;12.75;8.18;;;4.80;94.40;;;;;;5071106;28;20055;-66
2021/12/17 08:06:06;;;;;;;11.52;7.72;;;4.80;94.60;;;;;;5072355;28;20046;-64
2021/12/17 08:08:32;;;;;;;10.93;7.50;;;4.80;94.40;;;;;;5071999;28;20036;-64
2021/12/17 08:10:58;;;;;;;12.27;8.43;;;4.80;94.50;;;;;;5072439;28;20043;-65
2021/12/17 08:13:28;;;;;;;15.30;9.40;;;4.80;94.30;;;;;;5072101;28;20487;-65
2021/12/17 08:18:34;;;;;;;17.38;11.20;;;4.80;94.40;;;;;;5072526;28;20447;-67
2021/12/17 08:31:48;;;;;;;21.33;12.90;;;4.90;94.10;;;;;;5071870;28;20035;-64
2021/12/17 08:34:14;;;;;;;25.75;16.95;;;4.90;94.00;;;;;;5057385;28;20036;-64
2021/12/17 08:36:39;;;;;;;17.10;9.32;;;4.90;93.60;;;;;;5051392;28;20033;-65
2021/12/17 08:39:05;;;;;;;12.45;7.38;;;4.80;93.20;;;;;;5051474;28;20025;-65
2021/12/17 08:41:31;;;;;;;11.27;6.18;;;4.70;92.80;;;;;;5051690;28;20151;-65
2021/12/17 08:43:56;;;;;;;13.68;8.38;;;4.50;92.90;;;;;;5050059;28;20111;-65
2021/12/17 08:46:22;;;;;;;6.65;3.53;;;4.40;93.20;;;;;;5052076;28;20044;-65
2021/12/17 08:48:48;;;;;;;7.93;4.00;;;4.30;92.90;;;;;;5051043;28;20029;-64
2021/12/17 08:51:14;;;;;;;11.20;6.45;;;4.10;92.90;;;;;;5051994;28;20059;-64
2021/12/17 08:53:39;;;;;;;9.73;5.88;;;4.00;93.20;;;;;;5051697;28;20029;-65
2021/12/17 08:56:05;;;;;;;7.38;4.45;;;4.00;93.70;;;;;;5051353;28;20021;-64
2021/12/17 08:58:33;;;;;;;11.68;5.97;;;3.90;93.90;;;;;;5051251;28;20435;-65
2021/12/17 09:01:03;;;;;;;7.72;4.50;;;3.90;94.20;;;;;;5051592;28;20029;-65
2021/12/17 09:03:29;;;;;;;6.50;3.78;;;4.00;94.50;;;;;;5051298;28;20114;-66
2021/12/17 09:05:54;;;;;;;8.15;3.95;;;4.00;94.30;;;;;;5051390;28;20469;-65
2021/12/17 09:08:21;;;;;;;7.72;4.68;;;4.00;94.00;;;;;;5051169;28;20021;-64
2021/12/17 09:10:48;;;;;;;8.80;5.10;;;4.00;94.10;;;;;;5051665;28;20021;-66
2021/12/17 09:13:14;;;;;;;7.03;4.53;;;4.00;94.30;;;;;;5050908;28;20041;-64
2021/12/17 09:15:40;;;;;;;7.07;3.65;;;4.00;94.60;;;;;;5051036;28;20087;-66
2021/12/17 09:18:06;;;;;;;8.80;4.50;;;4.00;94.60;;;;;;5051026;28;20525;-64
2021/12/17 09:20:32;;;;;;;8.27;4.70;;;4.10;94.30;;;;;;5050141;28;20044;-67
2021/12/17 09:22:58;;;;;;;8.07;4.18;;;4.20;94.10;;;;;;5050885;28;20370;-64
2021/12/17 09:25:24;;;;;;;7.28;3.88;;;4.10;93.90;;;;;;5049754;28;20384;-64
2021/12/17 09:27:49;;;;;;;8.60;5.07;;;4.10;94.10;;;;;;5051213;28;20043;-66
2021/12/17 09:30:18;;;;;;;11.35;7.45;;;4.10;94.40;;;;;;5050774;28;20051;-65
2021/12/17 09:32:44;;;;;;;15.68;9.40;;;4.10;94.60;;;;;;5052404;28;20036;-64
2021/12/17 09:35:11;;;;;;;33.42;19.05;;;4.10;94.90;;;;;;5071030;28;20036;-65
2021/12/17 09:37:38;;;;;;;34.95;19.20;;;4.10;95.10;;;;;;5071125;28;20078;-66
2021/12/17 09:40:07;;;;;;;27.63;15.50;;;4.20;95.30;;;;;;5071056;28;20025;-65
2021/12/17 09:42:34;;;;;;;44.22;23.85;;;4.30;95.40;;;;;;5070667;28;20028;-63
2021/12/17 09:45:00;;;;;;;67.78;38.00;;;4.40;95.40;;;;;;5070851;28;20025;-65
2021/12/17 09:47:26;;;;;;;54.42;31.50;;;4.50;95.30;;;;;;5070922;28;20017;-65
2021/12/17 09:49:56;;;;;;;51.80;28.60;;;4.60;95.20;;;;;;5070839;28;20035;-65
2021/12/17 09:52:23;;;;;;;56.88;30.58;;;4.60;95.10;;;;;;5070744;28;20032;-65
2021/12/17 09:54:50;;;;;;;67.18;36.08;;;4.70;95.10;;;;;;5070974;28;20036;-65
2021/12/17 09:57:19;;;;;;;68.00;36.55;;;4.70;95.10;;;;;;5070938;28;20017;-65
2021/12/17 09:59:45;;;;;;;61.67;34.75;;;4.70;95.10;;;;;;5070730;28;20017;-65
2021/12/17 10:02:11;;;;;;;52.35;29.77;;;4.80;95.00;;;;;;5070691;28;20035;-65
2021/12/17 10:04:42;;;;;;;44.78;26.17;;;4.80;94.90;;;;;;5071390;28;20025;-65
2021/12/17 10:07:29;;;;;;;31.85;18.73;;;4.90;94.80;;;;;;5069595;28;20020;-66
2021/12/17 10:10:00;;;;;;;21.75;13.25;;;4.90;94.70;;;;;;5071168;28;20048;-64
2021/12/17 10:12:35;;;;;;;19.20;12.00;;;4.90;94.50;;;;;;5070943;28;20441;-67
2021/12/17 10:15:15;;;;;;;38.28;22.70;;;4.90;94.40;;;;;;5071257;28;20024;-67
2021/12/17 10:17:53;;;;;;;28.45;17.38;;;4.90;94.50;;;;;;5070891;28;20032;-65
2021/12/17 10:20:20;;;;;;;18.30;12.02;;;4.90;94.60;;;;;;5070650;28;20379;-64
2021/12/17 10:22:54;;;;;;;18.13;11.48;;;4.90;94.40;;;;;;5070586;28;20364;-65
2021/12/17 10:25:21;;;;;;;15.18;10.48;;;4.90;94.30;;;;;;5070494;28;20017;-66
2021/12/17 10:27:47;;;;;;;12.60;8.60;;;4.90;94.30;;;;;;5070772;28;20435;-65
2021/12/17 10:30:21;;;;;;;21.80;14.68;;;4.90;94.20;;;;;;5070459;28;20099;-66
2021/12/17 10:32:50;;;;;;;17.00;11.68;;;4.90;94.00;;;;;;5073965;28;20438;-66
2021/12/17 10:35:25;;;;;;;14.45;9.70;;;4.90;93.80;;;;;;5073778;28;20107;-65
2021/12/17 10:37:57;;;;;;;18.45;12.45;;;4.90;94.00;;;;;;5073945;28;20387;-65
2021/12/17 10:40:28;;;;;;;16.63;11.43;;;4.80;94.00;;;;;;5073794;28;20024;-66
2021/12/17 10:43:05;;;;;;;17.55;12.27;;;4.80;93.90;;;;;;5073222;28;20028;-65
2021/12/17 10:45:56;;;;;;;19.73;13.70;;;4.80;94.10;;;;;;5073726;28;20097;-65
2021/12/17 10:51:14;;;;;;;20.58;14.57;;;4.80;94.00;;;;;;5073881;28;20098;-65
2021/12/17 10:53:46;;;;;;;16.45;11.95;;;4.80;94.00;;;;;;5072473;28;20471;-66
2021/12/17 10:56:16;;;;;;;16.00;11.30;;;4.80;93.90;;;;;;5074182;28;20032;-67
2021/12/17 10:58:58;;;;;;;17.73;12.48;;;4.80;93.70;;;;;;5073972;28;20103;-65
2021/12/17 11:01:29;;;;;;;20.15;14.93;;;4.90;93.60;;;;;;5072088;28;20414;-66
2021/12/17 11:04:19;;;;;;;20.20;13.70;;;4.80;93.70;;;;;;5073812;28;20070;-65
2021/12/17 11:06:59;;;;;;;25.85;16.45;;;4.80;93.70;;;;;;5075323;28;20074;-66
2021/12/17 11:09:46;;;;;;;21.95;13.75;;;4.80;93.80;;;;;;5073914;28;20012;-64
2021/12/17 11:12:14;;;;;;;22.00;13.43;;;4.90;93.90;;;;;;5073148;28;20036;-65
2021/12/17 11:14:45;;;;;;;20.88;12.48;;;4.90;93.80;;;;;;5073179;28;20028;-65
2021/12/17 11:17:13;;;;;;;19.15;12.25;;;4.90;93.90;;;;;;5073608;28;20690;-67
2021/12/17 11:19:40;;;;;;;20.65;12.85;;;4.90;93.60;;;;;;5073370;28;20490;-66
2021/12/17 11:22:06;;;;;;;24.00;14.98;;;4.90;93.60;;;;;;5073430;28;20063;-65
2021/12/17 11:24:34;;;;;;;22.33;13.88;;;4.90;93.60;;;;;;5072694;28;20037;-64
2021/12/17 11:27:05;;;;;;;18.65;11.68;;;5.00;93.80;;;;;;5073097;28;20029;-65
2021/12/17 11:29:31;;;;;;;17.00;10.57;;;5.00;93.60;;;;;;5072952;28;20028;-64
2021/12/17 11:32:00;;;;;;;16.95;9.98;;;5.00;93.80;;;;;;5072792;28;20048;-64
2021/12/17 11:34:26;;;;;;;18.55;10.23;;;5.00;93.60;;;;;;5056885;28;20029;-65
2021/12/17 11:36:53;;;;;;;16.70;10.05;;;5.00;93.70;;;;;;5052537;28;20051;-65
2021/12/17 11:39:31;;;;;;;16.10;9.80;;;5.00;93.60;;;;;;5052610;28;20357;-64
2021/12/17 11:42:18;;;;;;;16.20;9.77;;;5.00;93.30;;;;;;5051846;28;20468;-66
2021/12/17 11:45:32;;;;;;;19.70;11.75;;;5.00;93.00;;;;;;5052125;28;20013;-64
2021/12/17 11:47:33;;;;;;;25.08;15.48;;;5.00;92.80;;;;;;5041546;28;20033;-64
2021/12/17 11:50:05;;;;;;;22.77;14.32;;;4.90;93.00;;;;;;5052497;28;20128;-65
2021/12/17 11:52:45;;;;;;;34.63;18.77;;;4.80;93.10;;;;;;5053206;28;20053;-66
2021/12/17 11:55:35;;;;;;;56.65;30.42;;;4.80;93.00;;;;;;5052478;28;20029;-64
2021/12/17 11:58:11;;;;;;;65.35;33.47;;;4.80;92.90;;;;;;5049142;28;20037;-65
2021/12/17 12:00:45;;;;;;;62.55;32.50;;;4.80;93.10;;;;;;5052358;28;20025;-64
2021/12/17 12:03:20;;;;;;;69.72;36.47;;;4.80;93.10;;;;;;5052136;28;20060;-64
2021/12/17 12:05:56;;;;;;;46.53;25.80;;;4.80;93.30;;;;;;5051050;28;20017;-65
2021/12/17 12:08:27;;;;;;;64.22;33.85;;;4.80;93.30;;;;;;5052503;28;20515;-65
2021/12/17 12:11:18;;;;;;;93.22;43.85;;;4.80;93.30;;;;;;5051993;28;20025;-66
2021/12/17 12:13:52;;;;;;;74.43;38.20;;;4.80;93.00;;;;;;5051863;28;20037;-64
2021/12/17 12:16:19;;;;;;;61.30;31.27;;;4.90;92.70;;;;;;5051761;28;20029;-65
2021/12/17 12:18:59;;;;;;;97.78;47.72;;;4.80;92.50;;;;;;5050702;28;20116;-66
2021/12/17 12:21:32;;;;;;;63.75;34.15;;;4.80;92.50;;;;;;5051964;28;20104;-65
2021/12/17 12:24:10;;;;;;;37.08;21.25;;;4.80;92.50;;;;;;5051707;28;20036;-66
2021/12/17 12:26:44;;;;;;;49.78;26.73;;;4.80;92.20;;;;;;5051872;28;20013;-65
2021/12/17 12:29:12;;;;;;;64.05;35.28;;;4.80;92.40;;;;;;5051864;28;20025;-65
2021/12/17 12:31:40;;;;;;;74.40;39.72;;;4.80;92.60;;;;;;5051723;28;20021;-66
2021/12/17 12:34:08;;;;;;;56.45;31.63;;;4.80;92.60;;;;;;5064427;28;20016;-66
2021/12/17 12:36:46;;;;;;;56.13;31.70;;;4.80;92.80;;;;;;5071575;28;20081;-66
2021/12/17 12:39:23;;;;;;;63.05;36.25;;;4.80;92.50;;;;;;5071837;28;20025;-65
2021/12/17 12:42:06;;;;;;;47.95;27.90;;;4.80;92.40;;;;;;5069761;28;20032;-66
2021/12/17 12:44:49;;;;;;;28.90;15.90;;;4.80;92.50;;;;;;5068336;28;20020;-67
2021/12/17 12:47:23;;;;;;;28.65;15.60;;;4.80;92.40;;;;;;5070326;28;20410;-64
2021/12/17 12:49:51;;;;;;;27.23;13.35;;;4.80;92.20;;;;;;5058876;28;20494;-65
2021/12/17 12:52:27;;;;;;;29.55;15.30;;;4.70;92.30;;;;;;5071015;28;20034;-64
2021/12/17 12:55:16;;;;;;;23.40;11.10;;;4.70;92.40;;;;;;5061734;28;20495;-66
2021/12/17 12:57:48;;;;;;;21.02;11.57;;;4.70;92.30;;;;;;5071678;28;20032;-66
2021/12/17 13:00:27;;;;;;;30.85;14.35;;;4.70;92.50;;;;;;5071636;28;20166;-67
2021/12/17 13:02:57;;;;;;;27.23;11.88;;;4.60;92.10;;;;;;5070970;28;20088;-66
2021/12/17 13:05:24;;;;;;;11.50;6.35;;;4.60;92.20;;;;;;5067876;28;20021;-66
2021/12/17 13:07:54;;;;;;;6.20;3.30;;;4.50;91.90;;;;;;5059217;28;20354;-66
2021/12/17 13:10:29;;;;;;;12.55;5.65;;;4.40;91.10;;;;;;5055008;28;20036;-66
2021/12/17 13:13:18;;;;;;;16.80;6.80;;;4.40;90.40;;;;;;5069855;28;20515;-65
2021/12/17 13:15:51;;;;;;;12.35;5.00;;;4.30;90.30;;;;;;5071237;28;20024;-65
2021/12/17 13:23:50;;;;;;;14.15;7.00;;;3.90;91.20;;;;;;5051325;28;20124;-65
2021/12/17 13:26:18;;;;;;;19.88;9.60;;;3.90;91.00;;;;;;5058063;28;20476;-65
2021/12/17 13:29:14;;;;;;;16.35;8.95;;;3.80;90.90;;;;;;5068791;28;20025;-66
2021/12/17 13:31:49;;;;;;;14.48;7.57;;;3.80;90.90;;;;;;5051415;28;20380;-64
2021/12/17 13:34:25;;;;;;;12.52;7.90;;;3.70;91.00;;;;;;5065075;28;20020;-65
2021/12/17 13:36:53;;;;;;;10.05;7.10;;;3.60;91.10;;;;;;5071233;28;20025;-65
2021/12/17 13:39:20;;;;;;;9.10;6.30;;;3.60;91.40;;;;;;5068678;28;20472;-65
2021/12/17 13:41:46;;;;;;;8.45;5.72;;;3.50;91.60;;;;;;5062456;28;20021;-66
2021/12/17 13:44:44;;;;;;;13.63;8.48;;;3.50;91.70;;;;;;5067866;28;20048;-66
2021/12/17 13:47:31;;;;;;;16.35;9.68;;;3.40;91.70;;;;;;5047471;28;20041;-66
2021/12/17 13:50:07;;;;;;;15.82;8.70;;;3.50;92.00;;;;;;5071505;28;20033;-66
2021/12/17 13:53:00;;;;;;;13.30;7.55;;;3.50;92.10;;;;;;5052540;28;20036;-64
2021/12/17 13:55:32;;;;;;;;;;;3.50;92.30;;;;;;5044306;28;20045;-68
2021/12/17 13:58:01;;;;;;;9.98;5.45;;;3.50;92.30;;;;;;5067927;28;19908;-66
2021/12/17 14:00:39;;;;;;;9.25;5.00;;;3.40;92.40;;;;;;5070919;28;20029;-66
2021/12/17 14:03:13;;;;;;;9.43;5.40;;;3.40;92.30;;;;;;5054550;28;20041;-66
2021/12/17 14:05:44;;;;;;;8.80;5.10;;;3.30;92.50;;;;;;5051819;28;20021;-66
2021/12/17 14:08:13;;;;;;;9.02;4.72;;;3.30;92.60;;;;;;5052971;28;20384;-66
2021/12/17 14:10:40;;;;;;;9.55;5.00;;;3.20;92.80;;;;;;5054796;28;20028;-67
2021/12/17 14:13:34;;;;;;;8.18;4.50;;;3.10;93.10;;;;;;5054779;28;20049;-67
2021/12/17 14:16:02;;;;;;;7.43;4.10;;;3.10;93.20;;;;;;5053984;28;20163;-65
2021/12/17 14:18:27;;;;;;;6.43;3.97;;;3.10;93.30;;;;;;5054700;28;20021;-67
2021/12/17 14:20:54;;;;;;;8.15;4.60;;;3.00;93.30;;;;;;5054362;28;20400;-65
2021/12/17 14:23:25;;;;;;;7.80;4.25;;;3.00;93.40;;;;;;5064607;28;20027;-67
2021/12/17 14:25:53;;;;;;;7.03;3.50;;;3.00;93.50;;;;;;5074383;28;20154;-67
2021/12/17 14:28:23;;;;;;;14.68;7.88;;;2.90;93.50;;;;;;5074400;28;20024;-65
2021/12/17 14:31:02;;;;;;;40.50;23.38;;;3.00;93.70;;;;;;5060335;28;20025;-66
2021/12/17 14:33:36;;;;;;;50.58;29.17;;;3.00;93.80;;;;;;5061494;28;20033;-68
2021/12/17 14:36:38;;;;;;;39.17;23.05;;;3.00;93.90;;;;;;5073377;28;20077;-67
2021/12/17 14:39:19;;;;;;;22.55;14.70;;;3.00;93.90;;;;;;5073974;28;20036;-64
2021/12/17 14:41:56;;;;;;;22.83;15.55;;;2.90;93.80;;;;;;5069042;28;20032;-68
2021/12/17 15:03:40;;;;;;;17.52;12.02;;;2.80;94.30;;;;;;5068927;28;20063;-67
2021/12/17 15:05:51;;;;;;;39.55;22.42;;;2.80;94.40;;;;;;5061919;28;20488;-65
2021/12/17 15:08:17;;;;;;;54.58;32.65;;;2.80;94.40;;;;;;5053166;28;20029;-64
2021/12/17 15:10:44;;;;;;;65.03;37.53;;;2.80;94.50;;;;;;5052249;28;20598;-65
2021/12/17 15:13:11;;;;;;;105.90;57.80;;;2.90;94.60;;;;;;5053050;28;20392;-65
2021/12/17 15:15:38;;;;;;;71.60;40.63;;;2.80;94.60;;;;;;5060548;28;20036;-66
2021/12/17 15:18:07;;;;;;;58.83;33.13;;;2.90;94.60;;;;;;5068906;28;20033;-65
2021/12/17 15:20:37;;;;;;;42.45;25.30;;;2.90;94.50;;;;;;5073255;28;20361;-66
2021/12/17 15:23:04;;;;;;;40.20;23.05;;;2.90;94.50;;;;;;5071866;28;20424;-65
2021/12/17 15:25:30;;;;;;;39.15;23.17;;;2.90;94.60;;;;;;5067522;28;20106;-66
2021/12/17 15:27:56;;;;;;;31.20;18.33;;;2.90;94.50;;;;;;5064704;28;20027;-66
2021/12/17 15:30:25;;;;;;;56.83;32.58;;;2.80;94.50;;;;;;5073139;28;20092;-67
2021/12/17 15:32:51;;;;;;;73.30;40.50;;;2.90;94.50;;;;;;5070233;28;20109;-66
2021/12/17 15:35:19;;;;;;;57.55;32.35;;;2.90;94.40;;;;;;5062550;28;20380;-66
2021/12/17 15:37:49;;;;;;;54.50;31.35;;;2.90;94.40;;;;;;5067196;28;20028;-67
2021/12/17 15:40:14;;;;;;;43.38;26.65;;;2.80;94.40;;;;;;5072731;28;20443;-65
2021/12/17 15:42:41;;;;;;;42.75;26.40;;;2.90;94.60;;;;;;5068876;28;20108;-66
2021/12/17 15:45:07;;;;;;;49.13;28.55;;;2.90;94.60;;;;;;5058904;28;20103;-66
2021/12/17 15:47:33;;;;;;;26.80;17.05;;;2.90;94.60;;;;;;5072525;28;20386;-65
2021/12/17 15:49:59;;;;;;;36.97;23.63;;;2.90;94.60;;;;;;5073130;28;20100;-66
2021/12/17 15:52:24;;;;;;;35.55;21.95;;;2.90;94.60;;;;;;5072728;28;20039;-64
2021/12/17 15:54:51;;;;;;;55.47;33.03;;;3.00;94.50;;;;;;5071214;28;20064;-66
2021/12/17 15:57:17;;;;;;;35.42;21.33;;;3.00;94.50;;;;;;5068268;28;20051;-66
2021/12/17 15:59:49;;;;;;;55.53;28.23;;;2.90;94.40;;;;;;5060067;28;20025;-66
2021/12/17 16:02:15;;;;;;;46.10;25.17;;;2.90;94.40;;;;;;5059547;28;20021;-66
2021/12/17 16:04:44;;;;;;;29.02;17.13;;;2.90;94.30;;;;;;5072424;28;20039;-67
2021/12/17 16:07:11;;;;;;;30.73;19.33;;;2.90;94.40;;;;;;5072354;28;20368;-66
2021/12/17 16:16:48;;;;;;;23.85;16.20;;;2.80;94.60;;;;;;5071869;28;20028;-68
2021/12/17 16:22:58;;;;;;;27.02;20.10;;;2.90;95.20;;;;;;5052426;28;20028;-66
2021/12/17 16:25:24;;;;;;;23.23;17.48;;;2.90;95.20;;;;;;5052377;28;20025;-65
2021/12/17 16:27:50;;;;;;;24.20;16.17;;;2.90;95.30;;;;;;5053017;28;20543;-67
2021/12/17 16:30:16;;;;;;;21.58;13.20;;;3.00;95.30;;;;;;5071758;28;20070;-67